Rhinelander, WI

6:45 AM CDT on August 27, 2016 (GMT -0500)
1600 | | Change Station

Elev 1600 ft 45.64 °N, 89.44 °W | Updated 30 seconds ago

Overcast
Overcast
56.9 °F
Feels Like 56.9 °F
N
0.0
Wind Variable Wind from SSE

Today
High -- | Low -- °F
--% Chance of Precip.
Yesterday
High -- | Low -- °F
Precip. -- in
Pressure 30.16 in
Visibility 10.0 miles
Clouds Overcast 9500 ft
Dew Point 56 °F
Humidity 98%
Rainfall 0.00 in
Snow Depth Not available.
6:13 AM 7:43 PM
Waning Crescent, 25% visible
METAR KRHI 271053Z AUTO 13004KT 10SM OVC095 14/13 A3016 RMK AO2 SLP211 T01390128 TSNO
Pressure 30.16 in
Visibility 10.0 miles
Clouds Overcast 9500 ft
Dew Point 56 °F
Humidity 98%
Rainfall 0.00 in
Snow Depth Not available.
6:13 AM 7:43 PM
Waning Crescent, 25% visible
METAR KRHI 271053Z AUTO 13004KT 10SM OVC095 14/13 A3016 RMK AO2 SLP211 T01390128 TSNO

10-Day Weather Forecast

Almanac

Astronomy

Aug. 27, 2016 Rise Set
Actual Time
Civil Twilight
Nautical Twilight
Astronomical Twilight
Moon
Length of Visible Light
Length of Day
Tomorrow will be .
, % of the Moon is Illuminated

Today's Extremes

State Highs State Lows

Community

WunderPhotos

Upload Photos

1,935,325 photos uploaded!

WunderBlog® & News

Nearby

Air Quality

  Air Quality AQ Index Pollutant
Not available.

Snow Depth

Station Depth Elevation

Earthquake Activity

City Distance Mag. Time & Date
Minimum magnitude displayed is 2.5.

Coastal Water Temperatures

Place Temperature

Stations

Nearby Weather Stations

Station Location Temp. Windchill Dew Point Humidity Wind Precip. Elev Updated Type
                   

Watches & Warnings

There are currently no watches in effect.